Terminal Aerodrome Forecast
Issued by NWS

Home | Current Version | Previous Version | Text Only | Print | Product List | Glossary On
Versions: 1 2 3 4 5 6 7 8 9 10 11 12 13
459
FTUS41 KLWX 081131
TAFMTN
TAF
KMTN 081131Z 0812/0912 VRB03KT P6SM OVC035
     FM081500 28007KT P6SM BKN060
     FM081700 27010G18KT P6SM SCT090
     FM090200 29013G25KT P6SM SKC=

USA.gov is the U.S. government's official web portal to all federal, state and local government web resources and services.